createdAt,value
2023-05-13T00:01:51.146Z,168.15
2023-05-13T00:05:45.685Z,168.15
2023-05-13T00:09:45.461Z,0.45
2023-05-13T00:13:45.705Z,0.45
2023-05-13T00:17:45.303Z,0.45
2023-05-13T00:21:45.097Z,0.45
2023-05-13T00:25:45.437Z,164.65
2023-05-13T00:29:45.519Z,164.65
2023-05-13T00:33:45.751Z,0.45
2023-05-13T00:37:45.349Z,0.45
2023-05-13T00:41:45.392Z,0.45
2023-05-13T00:45:46.594Z,0.44
2023-05-13T00:49:45.819Z,0.44
2023-05-13T00:53:45.639Z,0.44
2023-05-13T00:57:44.796Z,161.2
2023-05-13T01:01:48.641Z,0.43
2023-05-13T01:05:45.489Z,0.43
2023-05-13T01:09:45.592Z,0.44
2023-05-13T01:13:45.071Z,0.43
2023-05-13T01:17:45.777Z,0.43
2023-05-13T01:21:45.830Z,0.43
2023-05-13T01:25:45.422Z,154.43
2023-05-13T01:29:44.997Z,154.43
2023-05-13T01:33:45.878Z,0.42
2023-05-13T01:37:45.646Z,0.42
2023-05-13T01:42:04.682Z,154.43
2023-05-13T01:45:44.780Z,0.42
2023-05-13T01:49:45.317Z,0.42
2023-05-13T01:53:45.240Z,0.42
2023-05-13T01:57:45.515Z,0.42
2023-05-13T02:01:50.221Z,151.12
2023-05-13T02:05:45.043Z,151.12
2023-05-13T02:09:45.487Z,0.41
2023-05-13T02:13:45.723Z,0.42
2023-05-13T02:17:45.687Z,0.42
2023-05-13T02:21:45.295Z,0.42
2023-05-13T02:25:45.565Z,0.42
2023-05-13T02:29:44.743Z,0.42
2023-05-13T02:33:45.351Z,0.42
2023-05-13T02:37:45.420Z,0.42
2023-05-13T02:41:45.625Z,0.42
2023-05-13T02:45:45.520Z,0.42
2023-05-13T02:49:45.239Z,0.42
2023-05-13T02:53:44.964Z,0.42
2023-05-13T02:57:45.462Z,0.42
2023-05-13T03:01:48.868Z,0.42
2023-05-13T03:05:44.867Z,0.42
2023-05-13T03:09:45.164Z,0.42
2023-05-13T03:13:45.660Z,0.42
2023-05-13T03:17:46.379Z,0.42
2023-05-13T03:21:46.083Z,0.42
2023-05-13T03:25:44.922Z,5.41
2023-05-13T03:29:45.087Z,5.41
2023-05-13T03:33:45.618Z,1099.68
2023-05-13T03:37:44.926Z,633.35
2023-05-13T03:41:45.232Z,633.35
2023-05-13T03:45:45.227Z,1.23
2023-05-13T03:49:45.731Z,1.01
2023-05-13T03:53:45.740Z,1.01
2023-05-13T03:57:44.693Z,0.87
2023-05-13T04:01:48.097Z,291.5
2023-05-13T04:05:45.643Z,291.5
2023-05-13T04:09:45.246Z,0.72
2023-05-13T04:13:45.484Z,0.68
2023-05-13T04:17:46.035Z,0.68
2023-05-13T04:21:45.707Z,0.65
2023-05-13T04:25:45.030Z,0.65
2023-05-13T04:29:45.226Z,0.65
2023-05-13T04:33:45.813Z,0.65
2023-05-13T04:37:47.218Z,0.65
2023-05-13T04:41:45.176Z,0.65
2023-05-13T04:45:45.047Z,0.65
2023-05-13T04:49:47.998Z,0.65
2023-05-13T04:53:45.863Z,0.65
2023-05-13T04:57:44.866Z,0.65
2023-05-13T05:01:49.102Z,0.65
2023-05-13T05:05:45.017Z,0.65
2023-05-13T05:09:45.060Z,0.65
2023-05-13T05:13:45.430Z,0.65
2023-05-13T05:17:46.714Z,0.65
2023-05-13T05:21:48.433Z,0.65
2023-05-13T05:25:44.968Z,6.04
2023-05-13T05:29:44.976Z,7.43
2023-05-13T05:33:45.930Z,7.43
2023-05-13T05:37:47.581Z,7.43
2023-05-13T05:41:44.782Z,7.43
2023-05-13T05:45:45.179Z,7.43
2023-05-13T05:49:45.344Z,7.43
2023-05-13T05:53:45.269Z,7.43
2023-05-13T05:57:45.433Z,7.43
2023-05-13T06:01:48.233Z,7.43
2023-05-13T06:05:46.296Z,7.43
2023-05-13T06:09:45.848Z,7.43
2023-05-13T06:13:44.978Z,7.43
2023-05-13T06:17:45.812Z,7.43
2023-05-13T06:21:45.423Z,7.43
2023-05-13T06:25:45.382Z,7.43
2023-05-13T06:29:46.659Z,7.43
2023-05-13T06:33:59.506Z,6108.51
2023-05-13T06:37:45.321Z,6108.51
2023-05-13T06:41:45.278Z,6108.51
2023-05-13T06:45:44.886Z,6108.51
2023-05-13T06:49:45.847Z,6108.51
2023-05-13T06:53:45.431Z,6108.51
2023-05-13T06:58:02.073Z,6108.51
2023-05-13T07:01:51.087Z,6108.51
2023-05-13T07:05:45.994Z,6108.51
2023-05-13T07:09:45.364Z,6108.51
2023-05-13T07:13:45.559Z,6108.51
2023-05-13T07:17:45.814Z,6108.51
2023-05-13T07:21:45.474Z,6108.51
2023-05-13T07:25:45.586Z,6108.51
2023-05-13T07:29:45.746Z,6108.51
2023-05-13T07:33:45.695Z,6108.51
2023-05-13T07:37:45.650Z,6108.51
2023-05-13T07:41:45.229Z,22.68
2023-05-13T07:45:45.651Z,6.42
2023-05-13T07:49:45.700Z,6.42
2023-05-13T07:53:45.270Z,1112.58
2023-05-13T07:57:45.493Z,1.96
2023-05-13T08:01:49.695Z,1.96
2023-05-13T08:05:46.673Z,559.41
2023-05-13T08:09:45.291Z,1.25
2023-05-13T08:13:45.623Z,1.25
2023-05-13T08:17:46.084Z,410.66
2023-05-13T08:21:47.288Z,1.03
2023-05-13T08:25:46.100Z,1.03
2023-05-13T08:29:46.761Z,356.22
2023-05-13T08:33:45.183Z,0.92
2023-05-13T08:37:44.984Z,0.92
2023-05-13T08:41:45.405Z,0.89
2023-05-13T08:45:45.659Z,317.41
2023-05-13T08:49:45.648Z,317.41
2023-05-13T08:53:45.387Z,0.83
2023-05-13T08:57:45.868Z,0.82
2023-05-13T09:01:48.423Z,0.82
2023-05-13T09:05:50.081Z,286.49
2023-05-13T09:09:45.563Z,0.76
2023-05-13T09:13:44.782Z,0.76
2023-05-13T09:17:45.149Z,276.64
2023-05-13T09:21:45.174Z,276.64
2023-05-13T09:25:45.685Z,276.64
2023-05-13T09:29:46.079Z,271.81
2023-05-13T09:33:45.738Z,0.73
2023-05-13T09:37:48.174Z,0.73
2023-05-13T09:41:46.229Z,0.72
2023-05-13T09:45:45.048Z,262.3
2023-05-13T09:49:45.122Z,262.3
2023-05-13T09:53:44.953Z,0.7
2023-05-13T09:57:45.391Z,0.68
2023-05-13T10:02:06.462Z,0.68
2023-05-13T10:05:45.507Z,0.66
2023-05-13T10:11:56.419Z,0.65
2023-05-13T10:13:45.772Z,0.65
2023-05-13T10:16:50.402Z,239.5
2023-05-13T10:19:45.884Z,0.65
2023-05-13T10:22:46.494Z,0.64
2023-05-13T10:23:45.310Z,235.1
2023-05-13T10:25:47.604Z,235.1
2023-05-13T10:27:45.514Z,235.1
2023-05-13T10:29:45.265Z,0.64
2023-05-13T10:31:47.477Z,0.64
2023-05-13T10:33:46.153Z,0.64
2023-05-13T10:35:48.647Z,235.1
2023-05-13T10:37:45.230Z,235.1
2023-05-13T10:39:44.989Z,235.1
2023-05-13T10:41:45.794Z,235.1
2023-05-13T10:43:45.121Z,235.1
2023-05-13T10:45:45.662Z,235.1
2023-05-13T10:47:46.066Z,0.64
2023-05-13T10:49:45.762Z,0.64
2023-05-13T10:51:45.994Z,0.64
2023-05-13T10:53:45.651Z,235.1
2023-05-13T10:55:46.019Z,235.1
2023-05-13T10:57:45.833Z,235.1
2023-05-13T10:59:45.064Z,235.1
2023-05-13T11:01:53.737Z,235.1
2023-05-13T11:03:50.169Z,235.1
2023-05-13T11:05:45.280Z,235.1
2023-05-13T11:07:45.420Z,235.1
2023-05-13T11:09:44.894Z,235.1
2023-05-13T11:11:45.673Z,239.5
2023-05-13T11:13:45.399Z,239.5
2023-05-13T11:15:45.560Z,239.5
2023-05-13T11:17:45.440Z,239.5
2023-05-13T11:19:45.891Z,239.5
2023-05-13T11:23:45.355Z,0.65
2023-05-13T11:25:45.548Z,0.65
2023-05-13T11:27:45.422Z,0.65
2023-05-13T11:29:44.929Z,0.65
2023-05-13T11:31:46.029Z,0.65
2023-05-13T11:33:45.491Z,0.65
2023-05-13T11:35:45.487Z,0.66
2023-05-13T11:37:45.193Z,0.66
2023-05-13T11:39:45.790Z,0.66
2023-05-13T11:41:45.540Z,0.67
2023-05-13T11:43:46.447Z,0.67
2023-05-13T11:45:45.629Z,0.67
2023-05-13T11:47:45.346Z,1.08
2023-05-13T11:49:45.591Z,1.08
2023-05-13T11:51:45.016Z,1.08
2023-05-13T11:53:45.723Z,2.14
2023-05-13T11:55:45.613Z,2.14
2023-05-13T11:57:45.146Z,2.14
2023-05-13T11:59:59.569Z,843.15
2023-05-13T12:01:48.740Z,843.15
2023-05-13T12:03:47.032Z,843.15
2023-05-13T12:05:46.425Z,811.95
2023-05-13T12:07:44.959Z,811.95
2023-05-13T12:09:45.868Z,811.95
2023-05-13T12:11:45.296Z,2.09
2023-05-13T12:13:45.504Z,2.09
2023-05-13T12:15:48.994Z,2.09
2023-05-13T12:17:45.177Z,1.93
2023-05-13T12:19:45.890Z,1.93
2023-05-13T12:21:46.482Z,1.93
2023-05-13T12:23:48.668Z,1.58
2023-05-13T12:25:45.414Z,1.58
2023-05-13T12:27:46.095Z,1.58
2023-05-13T12:29:45.207Z,0.92
2023-05-13T12:31:46.003Z,0.92
2023-05-13T12:33:45.605Z,0.92
2023-05-13T12:35:46.085Z,0.75
2023-05-13T12:37:45.667Z,0.75
2023-05-13T12:39:46.974Z,0.75
2023-05-13T12:41:45.547Z,0.7
2023-05-13T12:43:45.069Z,0.7
2023-05-13T12:45:45.395Z,0.7
2023-05-13T12:47:46.028Z,0.66
2023-05-13T12:49:44.913Z,0.66
2023-05-13T12:51:48.124Z,0.66
2023-05-13T12:53:45.240Z,0.65
2023-05-13T12:55:45.515Z,0.65
2023-05-13T12:57:45.500Z,0.65
2023-05-13T12:59:45.001Z,0.64
2023-05-13T13:01:52.767Z,0.64
2023-05-13T13:03:48.001Z,0.64
2023-05-13T13:05:45.944Z,0.64
2023-05-13T13:07:45.368Z,0.64
2023-05-13T13:09:45.073Z,0.64
2023-05-13T13:11:45.709Z,0.62
2023-05-13T13:13:45.243Z,0.62
2023-05-13T13:15:45.290Z,0.62
2023-05-13T13:17:46.203Z,0.62
2023-05-13T13:19:48.181Z,0.62
2023-05-13T13:21:45.871Z,0.62
2023-05-13T13:23:45.230Z,230.75
2023-05-13T13:25:46.018Z,230.75
2023-05-13T13:27:45.419Z,230.75
2023-05-13T13:29:44.826Z,0.61
2023-05-13T13:31:45.744Z,0.61
2023-05-13T13:33:47.604Z,0.61
2023-05-13T13:35:46.053Z,222.22
2023-05-13T13:37:47.496Z,222.22
2023-05-13T13:39:45.650Z,222.22
2023-05-13T13:41:45.555Z,0.59
2023-05-13T13:43:54.277Z,0.59
2023-05-13T13:45:47.357Z,0.59
2023-05-13T13:47:45.832Z,0.59
2023-05-13T13:49:58.340Z,0.59
2023-05-13T13:51:47.264Z,0.59
2023-05-13T13:53:45.706Z,213.89
2023-05-13T13:55:45.382Z,213.89
2023-05-13T13:57:44.900Z,213.89
2023-05-13T13:59:45.405Z,0.58
2023-05-13T14:01:48.489Z,0.58
2023-05-13T14:03:47.518Z,0.58
2023-05-13T14:05:46.135Z,0.57
2023-05-13T14:07:44.861Z,0.57
2023-05-13T14:09:45.708Z,0.57
2023-05-13T14:11:45.514Z,213.89
2023-05-13T14:13:44.641Z,213.89
2023-05-13T14:15:45.502Z,213.89
2023-05-13T14:17:48.008Z,213.89
2023-05-13T14:19:46.162Z,213.89
2023-05-13T14:21:45.726Z,213.89
2023-05-13T14:23:45.050Z,209.81
2023-05-13T14:25:44.703Z,209.81
2023-05-13T14:27:45.369Z,209.81
2023-05-13T14:29:45.979Z,209.81
2023-05-13T14:31:45.871Z,209.81
2023-05-13T14:33:45.313Z,209.81
2023-05-13T14:35:45.654Z,0.56
2023-05-13T14:37:45.246Z,0.56
2023-05-13T14:39:48.389Z,0.56
2023-05-13T14:41:45.426Z,201.79
2023-05-13T14:43:44.612Z,201.79
2023-05-13T14:45:50.502Z,201.79
2023-05-13T14:47:45.774Z,0.55
2023-05-13T14:49:45.572Z,0.55
2023-05-13T14:51:45.467Z,0.55
2023-05-13T14:53:45.597Z,201.79
2023-05-13T14:55:45.347Z,201.79
2023-05-13T14:57:45.059Z,201.79
2023-05-13T14:59:45.757Z,0.53
2023-05-13T15:01:50.177Z,0.53
2023-05-13T15:03:46.303Z,0.53
2023-05-13T15:05:46.015Z,0.52
2023-05-13T15:07:45.211Z,0.52
2023-05-13T15:09:45.425Z,0.52
2023-05-13T15:11:45.413Z,186.35
2023-05-13T15:13:45.760Z,186.35
2023-05-13T15:15:45.615Z,186.35
2023-05-13T15:17:46.207Z,182.61
2023-05-13T15:19:45.699Z,182.61
2023-05-13T15:21:45.020Z,182.61
2023-05-13T15:23:45.596Z,0.47
2023-05-13T15:25:45.014Z,0.47
2023-05-13T15:27:45.564Z,0.47
2023-05-13T15:29:45.076Z,0.45
2023-05-13T15:31:45.775Z,0.45
2023-05-13T15:33:45.937Z,0.45
2023-05-13T15:35:45.351Z,0.44
2023-05-13T15:37:45.700Z,0.44
2023-05-13T15:39:48.065Z,0.44
2023-05-13T15:41:45.214Z,0.4
2023-05-13T15:43:45.515Z,0.4
2023-05-13T15:45:45.292Z,0.4
2023-05-13T15:47:48.553Z,0.39
2023-05-13T15:49:45.471Z,0.39
2023-05-13T15:51:45.216Z,0.39
2023-05-13T15:53:45.294Z,0.37
2023-05-13T15:55:45.382Z,0.37
2023-05-13T15:57:45.100Z,0.37
2023-05-13T15:59:44.942Z,0.37
2023-05-13T16:01:49.490Z,0.37
2023-05-13T16:03:47.418Z,0.37
2023-05-13T16:05:45.111Z,132.17
2023-05-13T16:07:45.512Z,132.17
2023-05-13T16:09:44.936Z,132.17
2023-05-13T16:11:46.259Z,129.17
2023-05-13T16:13:45.272Z,129.17
2023-05-13T16:15:44.719Z,129.17
2023-05-13T16:17:46.287Z,0.35
2023-05-13T16:19:46.328Z,0.35
2023-05-13T16:21:45.878Z,0.35
2023-05-13T16:23:45.081Z,0.35
2023-05-13T16:25:47.980Z,0.35
2023-05-13T16:27:45.290Z,0.35
2023-05-13T16:29:45.590Z,0.34
2023-05-13T16:31:45.758Z,0.34
2023-05-13T16:33:45.823Z,0.34
2023-05-13T16:35:45.669Z,0.35
2023-05-13T16:37:45.656Z,0.35
2023-05-13T16:39:45.505Z,0.35
2023-05-13T16:41:45.376Z,0.35
2023-05-13T16:43:49.984Z,0.35
2023-05-13T16:45:45.286Z,0.35
2023-05-13T16:47:46.329Z,0.36
2023-05-13T16:49:47.356Z,0.36
2023-05-13T16:51:46.249Z,0.36
2023-05-13T16:53:45.382Z,132.17
2023-05-13T16:55:45.774Z,132.17
2023-05-13T16:57:46.698Z,132.17
2023-05-13T16:59:45.363Z,0.37
2023-05-13T17:01:47.554Z,0.37
2023-05-13T17:03:47.173Z,0.37
2023-05-13T17:05:45.178Z,0.37
2023-05-13T17:07:45.744Z,0.37
2023-05-13T17:09:46.644Z,0.37
2023-05-13T17:11:46.029Z,0.38
2023-05-13T17:13:46.641Z,0.38
2023-05-13T17:15:45.734Z,0.38
2023-05-13T17:17:45.942Z,144.62
2023-05-13T17:19:45.737Z,144.62
2023-05-13T17:21:45.717Z,144.62
2023-05-13T17:23:45.565Z,147.85
2023-05-13T17:25:44.967Z,147.85
2023-05-13T17:27:47.803Z,147.85
2023-05-13T17:29:45.101Z,0.41
2023-05-13T17:31:45.627Z,0.41
2023-05-13T17:33:46.015Z,0.41
2023-05-13T17:35:45.404Z,0.42
2023-05-13T17:37:47.600Z,0.42
2023-05-13T17:39:45.066Z,0.42
2023-05-13T17:41:45.179Z,157.79
2023-05-13T17:43:45.299Z,157.79
2023-05-13T17:45:45.257Z,157.79
2023-05-13T17:47:46.131Z,0.43
2023-05-13T17:49:45.925Z,0.43
2023-05-13T17:51:45.222Z,0.43
2023-05-13T17:53:46.729Z,0.42
2023-05-13T17:55:45.228Z,0.42
2023-05-13T17:57:44.663Z,0.42
2023-05-13T17:59:45.648Z,154.43
2023-05-13T18:01:53.144Z,154.43
2023-05-13T18:03:46.219Z,154.43
2023-05-13T18:05:45.089Z,157.79
2023-05-13T18:07:45.531Z,157.79
2023-05-13T18:09:44.983Z,157.79
2023-05-13T18:11:45.744Z,0.43
2023-05-13T18:13:46.609Z,0.43
2023-05-13T18:15:45.330Z,0.43
2023-05-13T18:17:45.475Z,0.43
2023-05-13T18:19:45.840Z,0.43
2023-05-13T18:21:45.474Z,0.43
2023-05-13T18:23:45.724Z,0.44
2023-05-13T18:25:56.806Z,0.44
2023-05-13T18:27:44.760Z,0.44
2023-05-13T18:29:45.647Z,0.44
2023-05-13T18:31:45.873Z,0.44
2023-05-13T18:33:46.120Z,0.44
2023-05-13T18:35:45.281Z,0.45
2023-05-13T18:37:47.383Z,0.45
2023-05-13T18:39:45.356Z,0.45
2023-05-13T18:41:45.512Z,0.46
2023-05-13T18:43:45.385Z,0.46
2023-05-13T18:45:44.822Z,0.46
2023-05-13T18:47:46.096Z,0.46
2023-05-13T18:49:45.631Z,0.46
2023-05-13T18:51:45.266Z,0.46
2023-05-13T18:53:45.669Z,0.47
2023-05-13T18:55:45.148Z,0.47
2023-05-13T18:57:44.824Z,0.47
2023-05-13T18:59:45.551Z,0.48
2023-05-13T19:01:51.886Z,0.48
2023-05-13T19:03:47.472Z,0.48
2023-05-13T19:05:46.112Z,0.47
2023-05-13T19:07:44.804Z,0.47
2023-05-13T19:09:45.713Z,0.47
2023-05-13T19:11:49.564Z,175.28
2023-05-13T19:13:57.885Z,175.28
2023-05-13T19:15:45.260Z,175.28
2023-05-13T19:17:45.698Z,0.47
2023-05-13T19:19:46.466Z,0.47
2023-05-13T19:21:45.059Z,0.47
2023-05-13T19:23:45.494Z,0.47
2023-05-13T19:25:45.015Z,0.47
2023-05-13T19:27:47.317Z,0.47
2023-05-13T19:29:45.341Z,0.46
2023-05-13T19:31:46.159Z,0.46
2023-05-13T19:33:46.418Z,0.46
2023-05-13T19:35:44.965Z,164.65
2023-05-13T19:37:45.495Z,164.65
2023-05-13T19:39:45.170Z,164.65
2023-05-13T19:41:45.703Z,161.2
2023-05-13T19:43:45.056Z,161.2
2023-05-13T19:45:46.102Z,161.2
2023-05-13T19:47:45.796Z,0.44
2023-05-13T19:49:49.580Z,0.44
2023-05-13T19:51:45.783Z,0.44
2023-05-13T19:53:44.985Z,161.2
2023-05-13T19:55:45.610Z,161.2
2023-05-13T19:57:45.353Z,161.2
2023-05-13T19:59:44.887Z,161.2
2023-05-13T20:01:46.309Z,161.2
2023-05-13T20:03:46.470Z,161.2
2023-05-13T20:05:45.071Z,157.79
2023-05-13T20:07:45.208Z,157.79
2023-05-13T20:09:44.857Z,157.79
2023-05-13T20:11:46.016Z,157.79
2023-05-13T20:13:45.435Z,157.79
2023-05-13T20:15:44.806Z,157.79
2023-05-13T20:17:46.194Z,154.43
2023-05-13T20:19:45.895Z,154.43
2023-05-13T20:21:45.839Z,154.43
2023-05-13T20:23:48.287Z,154.43
2023-05-13T20:25:45.413Z,154.43
2023-05-13T20:27:45.172Z,154.43
2023-05-13T20:29:46.663Z,0.42
2023-05-13T20:31:46.478Z,0.42
2023-05-13T20:33:45.785Z,0.42
2023-05-13T20:35:45.338Z,157.79
2023-05-13T20:37:47.308Z,157.79
2023-05-13T20:39:45.181Z,157.79
2023-05-13T20:41:45.382Z,0.43
2023-05-13T20:43:45.448Z,0.43
2023-05-13T20:45:44.877Z,0.43
2023-05-13T20:47:45.742Z,154.43
2023-05-13T20:49:44.999Z,154.43
2023-05-13T20:51:45.783Z,154.43
2023-05-13T20:53:45.656Z,0.4
2023-05-13T20:55:45.733Z,0.4
2023-05-13T20:57:45.196Z,0.4
2023-05-13T20:59:44.872Z,147.85
2023-05-13T21:01:48.572Z,147.85
2023-05-13T21:03:46.832Z,147.85
2023-05-13T21:05:46.206Z,0.39
2023-05-13T21:07:44.670Z,0.39
2023-05-13T21:09:45.333Z,0.39
2023-05-13T21:11:45.524Z,141.45
2023-05-13T21:13:45.424Z,141.45
2023-05-13T21:15:48.205Z,141.45
2023-05-13T21:17:45.703Z,0.38
2023-05-13T21:19:45.653Z,0.38
2023-05-13T21:21:46.007Z,0.38
2023-05-13T21:23:45.309Z,0.39
2023-05-13T21:25:45.591Z,0.39
2023-05-13T21:27:45.082Z,0.39
2023-05-13T21:29:44.629Z,0.39
2023-05-13T21:31:46.263Z,0.39
2023-05-13T21:33:46.149Z,0.39
2023-05-13T21:35:47.466Z,147.85
2023-05-13T21:37:47.366Z,147.85
2023-05-13T21:39:56.022Z,147.85
2023-05-13T21:41:46.116Z,151.12
2023-05-13T21:43:45.361Z,151.12
2023-05-13T21:45:45.221Z,151.12
2023-05-13T21:47:45.547Z,0.41
2023-05-13T21:49:45.699Z,0.41
2023-05-13T21:51:45.830Z,0.41
2023-05-13T21:53:45.379Z,0.42
2023-05-13T21:55:46.050Z,0.42
2023-05-13T21:57:45.186Z,0.42
2023-05-13T21:59:45.880Z,0.42
2023-05-13T22:01:47.131Z,0.42
2023-05-13T22:03:46.918Z,0.42
2023-05-13T22:05:47.309Z,0.43
2023-05-13T22:07:45.399Z,0.43
2023-05-13T22:09:45.046Z,0.43
2023-05-13T22:11:46.138Z,157.79
2023-05-13T22:13:45.032Z,157.79
2023-05-13T22:15:45.635Z,157.79
2023-05-13T22:18:02.589Z,157.79
2023-05-13T22:19:47.188Z,157.79
2023-05-13T22:21:46.072Z,157.79
2023-05-13T22:23:44.687Z,157.79
2023-05-13T22:25:45.195Z,157.79
2023-05-13T22:27:44.817Z,157.79
2023-05-13T22:29:45.562Z,0.43
2023-05-13T22:31:45.556Z,0.43
2023-05-13T22:33:46.069Z,0.43
2023-05-13T22:35:44.874Z,161.2
2023-05-13T22:37:45.582Z,161.2
2023-05-13T22:39:45.311Z,161.2
2023-05-13T22:41:45.736Z,161.2
2023-05-13T22:43:45.319Z,161.2
2023-05-13T22:45:45.020Z,161.2
2023-05-13T22:47:46.417Z,161.2
2023-05-13T22:49:45.470Z,161.2
2023-05-13T22:51:46.200Z,161.2
2023-05-13T22:53:45.312Z,0.44
2023-05-13T22:55:45.042Z,0.44
2023-05-13T22:57:45.923Z,0.44
2023-05-13T22:59:45.608Z,0.44
2023-05-13T23:01:48.753Z,0.44
2023-05-13T23:03:45.184Z,0.44
2023-05-13T23:05:46.330Z,161.2
2023-05-13T23:07:45.391Z,161.2
2023-05-13T23:09:45.604Z,161.2
2023-05-13T23:11:45.704Z,0.44
2023-05-13T23:13:45.117Z,0.44
2023-05-13T23:15:45.664Z,0.44
2023-05-13T23:17:45.949Z,161.2
2023-05-13T23:19:46.252Z,161.2
2023-05-13T23:21:45.858Z,161.2
2023-05-13T23:23:44.997Z,0.44
2023-05-13T23:25:45.617Z,0.44
2023-05-13T23:27:45.350Z,0.44
2023-05-13T23:29:45.668Z,0.43
2023-05-13T23:31:46.199Z,0.43
2023-05-13T23:33:47.638Z,0.43
2023-05-13T23:35:45.613Z,0.43
2023-05-13T23:37:45.063Z,0.43
2023-05-13T23:39:45.538Z,0.43
2023-05-13T23:41:45.831Z,0.42
2023-05-13T23:43:45.223Z,0.42
2023-05-13T23:45:45.797Z,0.42
2023-05-13T23:47:45.450Z,0.42
2023-05-13T23:49:45.679Z,0.42
2023-05-13T23:51:45.751Z,0.42
2023-05-13T23:53:45.066Z,0.42
2023-05-13T23:55:45.778Z,0.42
2023-05-13T23:57:45.375Z,0.42
2023-05-13T23:59:44.749Z,151.12
